Time;durP1;ratioP1;P1;durP2;ratioP2;P2;SDS_P1;SDS_P2;PMS_P1;PMS_P2;Temp;Humidity;BMP_temperature;BMP_pressure;BME280_temperature;BME280_humidity;BME280_pressure;Samples;Min_cycle;Max_cycle;Signal;HPM_P1;HPM_P2
2024/02/28 00:02:07;;;;;;;3.05;1.70;;;5.50;99.90;;;;;;4424612;32;20124;-74
2024/02/28 00:04:33;;;;;;;0.50;0.50;;;5.50;99.90;;;;;;4424768;32;20066;-74
2024/02/28 00:06:59;;;;;;;1.15;1.05;;;5.50;99.90;;;;;;4424496;32;20546;-75
2024/02/28 00:09:24;;;;;;;1.65;1.30;;;5.40;99.90;;;;;;4423848;32;20130;-75
2024/02/28 00:11:49;;;;;;;1.10;0.77;;;5.50;99.90;;;;;;4424268;32;20077;-74
2024/02/28 00:14:15;;;;;;;0.65;0.65;;;5.50;99.90;;;;;;4422478;32;20642;-75
2024/02/28 00:16:41;;;;;;;0.60;0.60;;;5.60;99.90;;;;;;4424536;32;20141;-74
2024/02/28 00:19:07;;;;;;;1.85;0.60;;;5.60;99.90;;;;;;4423012;32;20084;-75
2024/02/28 00:21:33;;;;;;;0.88;0.88;;;5.50;99.90;;;;;;4424899;32;20092;-74
2024/02/28 00:23:58;;;;;;;1.70;1.58;;;5.60;99.90;;;;;;4423019;32;20102;-74
2024/02/28 00:26:24;;;;;;;6.03;1.60;;;5.60;99.90;;;;;;4424328;32;20186;-74
2024/02/28 00:28:49;;;;;;;0.82;0.82;;;5.60;99.90;;;;;;4423737;32;20481;-75
2024/02/28 00:31:15;;;;;;;2.78;1.65;;;5.50;99.90;;;;;;4423745;32;20529;-74
2024/02/28 00:33:40;;;;;;;1.00;0.95;;;5.50;99.90;;;;;;4424160;32;20077;-75
2024/02/28 00:36:06;;;;;;;1.00;0.90;;;5.60;99.90;;;;;;4423823;32;20077;-75
2024/02/28 00:38:31;;;;;;;9.40;1.20;;;5.60;99.90;;;;;;4422183;32;20089;-74
2024/02/28 00:40:57;;;;;;;0.77;0.77;;;5.60;99.90;;;;;;4422295;32;20081;-74
2024/02/28 00:43:22;;;;;;;1.12;1.08;;;5.50;99.90;;;;;;4422514;32;20156;-75
2024/02/28 00:45:48;;;;;;;1.50;1.15;;;5.40;99.90;;;;;;4421519;32;20085;-75
2024/02/28 00:48:14;;;;;;;1.73;1.05;;;5.30;99.90;;;;;;4421343;32;20489;-72
2024/02/28 00:50:39;;;;;;;0.80;0.80;;;5.40;99.90;;;;;;4422127;32;20081;-73
2024/02/28 00:53:05;;;;;;;3.20;0.70;;;5.40;99.90;;;;;;4423354;32;20136;-73
2024/02/28 00:55:30;;;;;;;0.50;0.50;;;5.50;99.90;;;;;;4422768;32;20077;-72
2024/02/28 00:57:56;;;;;;;1.23;1.12;;;5.50;99.90;;;;;;4419400;32;20627;-73
2024/02/28 01:00:21;;;;;;;0.80;0.80;;;5.50;99.90;;;;;;4423662;32;20066;-73
2024/02/28 01:02:47;;;;;;;0.60;0.60;;;5.50;99.90;;;;;;4423728;32;20086;-74
2024/02/28 01:05:12;;;;;;;0.40;0.40;;;5.50;99.90;;;;;;4423408;32;20085;-73
2024/02/28 01:07:38;;;;;;;5.37;1.02;;;5.50;99.90;;;;;;4422325;32;20462;-73
2024/02/28 01:10:04;;;;;;;2.78;1.33;;;5.50;99.90;;;;;;4422948;32;20093;-73
2024/02/28 01:12:29;;;;;;;2.33;1.62;;;5.50;99.90;;;;;;4420510;32;20101;-73
2024/02/28 01:14:55;;;;;;;0.62;0.62;;;5.50;99.90;;;;;;4422644;32;20092;-74
2024/02/28 01:17:21;;;;;;;1.77;1.12;;;5.40;99.90;;;;;;4425315;32;20089;-73
2024/02/28 01:19:47;;;;;;;1.65;1.50;;;5.40;99.90;;;;;;4423717;32;20081;-74
2024/02/28 01:22:12;;;;;;;1.60;1.10;;;5.30;99.90;;;;;;4421712;32;20485;-74
2024/02/28 01:24:38;;;;;;;0.50;0.50;;;5.30;99.90;;;;;;4423153;32;20089;-74
2024/02/28 01:27:03;;;;;;;1.23;1.15;;;5.40;99.90;;;;;;4422644;32;20092;-74
2024/02/28 01:29:29;;;;;;;1.85;1.20;;;5.40;99.90;;;;;;4421034;32;20510;-73
2024/02/28 01:31:55;;;;;;;0.77;0.77;;;5.50;99.90;;;;;;4422708;32;20085;-74
2024/02/28 01:34:21;;;;;;;4.65;1.77;;;5.40;99.90;;;;;;4421886;32;20525;-73
2024/02/28 01:36:46;;;;;;;1.83;0.75;;;5.30;99.90;;;;;;4419728;32;20135;-74
2024/02/28 01:39:12;;;;;;;3.25;1.52;;;5.40;99.90;;;;;;4418906;32;20158;-73
2024/02/28 01:41:37;;;;;;;2.53;1.42;;;5.40;99.90;;;;;;4420660;32;20090;-73
2024/02/28 01:44:03;;;;;;;8.15;1.50;;;5.50;99.90;;;;;;4422464;32;21735;-73
2024/02/28 01:46:29;;;;;;;0.68;0.68;;;5.50;99.90;;;;;;4423967;32;20085;-74
2024/02/28 01:48:55;;;;;;;0.85;0.85;;;5.50;99.90;;;;;;4424565;32;20128;-73
2024/02/28 01:51:23;;;;;;;18.17;1.42;;;5.40;99.90;;;;;;4422104;32;20203;-74
2024/02/28 01:53:51;;;;;;;1.45;1.20;;;5.40;99.90;;;;;;4422512;32;20130;-74
2024/02/28 01:56:17;;;;;;;1.05;0.90;;;5.50;99.90;;;;;;4424450;32;20523;-73
2024/02/28 01:58:45;;;;;;;1.62;1.23;;;5.40;99.90;;;;;;4421899;32;20078;-72
2024/02/28 02:01:11;;;;;;;0.93;0.80;;;5.40;99.90;;;;;;4422788;32;20081;-73
2024/02/28 02:03:36;;;;;;;39.83;2.47;;;5.50;99.90;;;;;;4423809;32;20097;-73
2024/02/28 02:06:03;;;;;;;4.97;1.73;;;5.30;99.90;;;;;;4422596;32;20541;-74
2024/02/28 02:08:29;;;;;;;0.70;0.70;;;5.40;99.90;;;;;;4422110;32;20207;-74
2024/02/28 02:10:54;;;;;;;1.17;1.12;;;5.40;99.90;;;;;;4421481;32;20126;-74
2024/02/28 02:13:20;;;;;;;1.30;1.12;;;5.40;99.90;;;;;;4420639;32;21060;-73
2024/02/28 02:15:45;;;;;;;0.88;0.88;;;5.20;99.90;;;;;;4422057;32;20123;-74
2024/02/28 02:18:11;;;;;;;0.40;0.40;;;5.10;99.90;;;;;;4425251;32;20478;-73
2024/02/28 02:20:41;;;;;;;0.90;0.82;;;5.10;99.90;;;;;;4423267;32;20085;-73
2024/02/28 02:23:07;;;;;;;1.23;0.82;;;5.10;99.90;;;;;;4423432;32;20077;-74
2024/02/28 02:25:32;;;;;;;0.50;0.50;;;5.10;99.90;;;;;;4422158;32;20080;-73
2024/02/28 02:27:58;;;;;;;0.30;0.30;;;5.20;99.90;;;;;;4421480;32;20069;-74
2024/02/28 02:30:23;;;;;;;8.00;0.90;;;5.30;99.90;;;;;;4421941;32;20085;-73
2024/02/28 02:32:49;;;;;;;0.70;0.70;;;5.30;99.90;;;;;;4422520;32;20069;-74
2024/02/28 02:35:14;;;;;;;3.87;1.10;;;5.40;99.90;;;;;;4421776;32;20080;-74
2024/02/28 02:37:45;;;;;;;1.10;1.02;;;5.30;99.90;;;;;;4419853;32;20084;-74
2024/02/28 02:40:12;;;;;;;1.33;1.23;;;5.30;99.90;;;;;;4418514;32;20612;-74
2024/02/28 02:42:37;;;;;;;1.17;1.10;;;5.20;99.90;;;;;;4418485;32;20077;-74
2024/02/28 02:45:03;;;;;;;2.20;0.68;;;5.30;99.90;;;;;;4419855;32;20088;-74
2024/02/28 02:47:30;;;;;;;0.50;0.50;;;5.20;99.90;;;;;;4424138;32;20131;-73
2024/02/28 02:49:56;;;;;;;1.00;0.73;;;5.20;99.90;;;;;;4423218;32;20073;-74
2024/02/28 02:52:21;;;;;;;6.03;1.00;;;5.20;99.90;;;;;;4422139;32;20534;-74
2024/02/28 02:54:47;;;;;;;1.35;1.08;;;5.30;99.90;;;;;;4420600;32;20080;-74
2024/02/28 02:57:12;;;;;;;0.30;0.30;;;5.40;99.90;;;;;;4421306;32;20080;-74
2024/02/28 02:59:38;;;;;;;0.75;0.60;;;5.30;99.90;;;;;;4422277;32;20584;-73
2024/02/28 03:04:29;;;;;;;3.75;1.52;;;5.20;99.90;;;;;;4422298;32;20124;-73
2024/02/28 03:06:54;;;;;;;1.20;0.77;;;5.20;99.90;;;;;;4421330;32;20065;-74
2024/02/28 03:09:20;;;;;;;1.95;1.75;;;5.20;99.90;;;;;;4422710;32;20070;-73
2024/02/28 03:11:45;;;;;;;1.60;0.60;;;5.20;99.90;;;;;;4420215;32;20065;-74
2024/02/28 03:14:11;;;;;;;0.32;0.32;;;5.20;99.90;;;;;;4423358;32;20118;-74
2024/02/28 03:16:41;;;;;;;0.40;0.40;;;5.20;99.90;;;;;;4425685;32;20080;-73
2024/02/28 03:19:07;;;;;;;6.68;1.02;;;5.20;99.90;;;;;;4427286;32;20090;-75
2024/02/28 03:21:32;;;;;;;0.80;0.80;;;5.20;99.90;;;;;;4427646;32;20062;-74
2024/02/28 03:23:58;;;;;;;0.52;0.52;;;5.20;99.90;;;;;;4427471;32;20090;-73
2024/02/28 03:26:23;;;;;;;0.32;0.32;;;5.20;99.90;;;;;;4425511;32;20069;-73
2024/02/28 03:28:48;;;;;;;0.75;0.62;;;5.20;99.90;;;;;;4428629;32;20120;-73
2024/02/28 03:31:14;;;;;;;0.52;0.52;;;5.10;99.90;;;;;;4427093;32;20084;-73
2024/02/28 03:33:39;;;;;;;2.95;1.33;;;5.00;99.90;;;;;;4427888;32;20419;-74
2024/02/28 03:36:05;;;;;;;0.40;0.40;;;5.10;99.90;;;;;;4427109;32;20456;-74
2024/02/28 03:38:31;;;;;;;0.80;0.55;;;5.00;99.90;;;;;;4428036;32;20113;-74
2024/02/28 03:40:57;;;;;;;0.30;0.30;;;5.00;99.90;;;;;;4424288;32;20073;-74
2024/02/28 03:43:22;;;;;;;1.00;0.90;;;5.10;99.90;;;;;;4423063;32;20444;-73
2024/02/28 03:45:48;;;;;;;0.68;0.68;;;5.10;99.90;;;;;;4425364;32;20060;-74
2024/02/28 03:48:14;;;;;;;1.92;0.93;;;5.00;99.90;;;;;;4427012;32;20208;-74
2024/02/28 03:50:39;;;;;;;0.37;0.37;;;5.00;99.90;;;;;;4427194;32;20117;-72
2024/02/28 03:53:05;;;;;;;2.75;0.70;;;5.00;99.90;;;;;;4423928;32;20120;-73
2024/02/28 03:55:30;;;;;;;1.02;0.62;;;5.10;99.90;;;;;;4427776;32;20070;-73
2024/02/28 03:57:56;;;;;;;3.37;0.68;;;5.10;99.90;;;;;;4425164;32;20084;-74
2024/02/28 04:00:22;;;;;;;0.40;0.40;;;5.00;99.90;;;;;;4425586;32;20069;-74
2024/02/28 04:02:47;;;;;;;0.85;0.52;;;5.00;99.90;;;;;;4425947;32;20450;-74
2024/02/28 04:05:13;;;;;;;0.50;0.50;;;5.00;99.90;;;;;;4426736;32;20093;-73
2024/02/28 04:07:38;;;;;;;0.50;0.50;;;5.10;99.90;;;;;;4427884;32;20077;-74
2024/02/28 04:10:05;;;;;;;0.70;0.70;;;5.10;99.90;;;;;;4426312;32;20085;-74
2024/02/28 04:12:31;;;;;;;1.05;0.95;;;5.10;99.90;;;;;;4426017;32;20557;-74
2024/02/28 04:14:56;;;;;;;1.25;0.88;;;5.10;99.90;;;;;;4427695;32;20473;-73
2024/02/28 04:17:22;;;;;;;0.30;0.30;;;5.00;99.90;;;;;;4426750;32;20064;-74
2024/02/28 04:19:47;;;;;;;3.62;0.85;;;5.00;99.90;;;;;;4428258;32;20140;-74
2024/02/28 04:22:13;;;;;;;0.40;0.40;;;5.10;99.90;;;;;;4425806;32;20127;-73
2024/02/28 04:24:38;;;;;;;0.30;0.30;;;5.10;99.90;;;;;;4427541;32;20093;-73
2024/02/28 04:27:05;;;;;;;1.48;0.95;;;5.10;99.90;;;;;;4423853;32;20101;-74
2024/02/28 04:29:31;;;;;;;0.60;0.60;;;5.10;99.90;;;;;;4423642;32;20129;-74
2024/02/28 04:31:56;;;;;;;2.12;1.05;;;5.10;99.90;;;;;;4422909;32;20125;-73
2024/02/28 04:34:22;;;;;;;2.05;0.80;;;5.10;99.90;;;;;;4425329;32;20065;-73
2024/02/28 04:36:47;;;;;;;0.80;0.77;;;5.00;99.90;;;;;;4423823;32;20119;-73
2024/02/28 04:39:12;;;;;;;2.30;0.85;;;5.10;99.90;;;;;;4423454;32;20104;-74
2024/02/28 04:41:38;;;;;;;1.80;0.80;;;5.10;99.90;;;;;;4423306;32;20584;-74
2024/02/28 04:44:03;;;;;;;0.30;0.30;;;5.10;99.90;;;;;;4421544;32;20073;-74
2024/02/28 04:46:29;;;;;;;0.65;0.65;;;5.10;99.90;;;;;;4421568;32;20077;-74
2024/02/28 04:48:54;;;;;;;0.30;0.30;;;5.00;99.90;;;;;;4423518;32;20454;-74
2024/02/28 04:51:20;;;;;;;1.60;1.30;;;5.10;99.90;;;;;;4424463;32;20109;-74
2024/02/28 04:53:45;;;;;;;1.75;0.80;;;5.10;99.90;;;;;;4422281;32;20061;-73
2024/02/28 04:56:11;;;;;;;0.47;0.47;;;5.00;99.90;;;;;;4422667;32;20089;-74
2024/02/28 04:58:37;;;;;;;0.57;0.57;;;5.00;99.90;;;;;;4423511;32;20077;-73
2024/02/28 05:01:03;;;;;;;3.30;0.70;;;4.90;99.90;;;;;;4423417;32;20101;-74
2024/02/28 05:03:28;;;;;;;0.80;0.60;;;4.90;99.90;;;;;;4425764;32;20550;-73
2024/02/28 05:05:54;;;;;;;0.40;0.40;;;4.90;99.90;;;;;;4424049;32;20088;-76
2024/02/28 05:08:20;;;;;;;0.45;0.45;;;5.00;99.90;;;;;;4423085;32;20514;-75
2024/02/28 05:10:45;;;;;;;1.77;0.75;;;5.10;99.90;;;;;;4425384;32;20065;-75
2024/02/28 05:13:11;;;;;;;0.50;0.50;;;5.10;99.90;;;;;;4420785;32;20089;-76
2024/02/28 05:15:36;;;;;;;0.37;0.37;;;5.00;99.90;;;;;;4423742;32;20143;-76
2024/02/28 05:18:02;;;;;;;0.50;0.50;;;5.00;99.90;;;;;;4421441;32;20411;-75
2024/02/28 05:20:28;;;;;;;3.40;0.75;;;5.00;99.90;;;;;;4422855;32;20155;-75
2024/02/28 05:22:53;;;;;;;0.40;0.40;;;5.10;99.90;;;;;;4416387;32;21728;-76
2024/02/28 05:25:19;;;;;;;0.57;0.55;;;5.10;99.90;;;;;;4424677;32;20593;-76
2024/02/28 05:27:44;;;;;;;0.30;0.30;;;5.00;99.90;;;;;;4421231;32;20084;-75
2024/02/28 05:30:10;;;;;;;0.28;0.28;;;5.10;99.90;;;;;;4424913;32;20070;-75
2024/02/28 05:32:36;;;;;;;0.30;0.30;;;5.10;99.90;;;;;;4423631;32;20212;-75
2024/02/28 05:35:02;;;;;;;0.47;0.47;;;5.00;99.90;;;;;;4424136;32;20160;-75
2024/02/28 05:37:27;;;;;;;0.40;0.40;;;5.10;99.90;;;;;;4421712;32;20093;-76
2024/02/28 05:39:53;;;;;;;1.00;0.80;;;5.00;99.90;;;;;;4423054;32;20167;-75
2024/02/28 05:42:21;;;;;;;0.40;0.40;;;5.00;99.90;;;;;;4420189;32;20057;-75
2024/02/28 05:44:48;;;;;;;0.40;0.40;;;5.00;99.90;;;;;;4421212;32;20119;-74
2024/02/28 05:47:14;;;;;;;0.35;0.35;;;5.00;99.90;;;;;;4420315;32;20097;-73
2024/02/28 05:49:39;;;;;;;0.45;0.45;;;5.00;99.90;;;;;;4421555;32;20110;-73
2024/02/28 05:52:05;;;;;;;0.57;0.57;;;4.90;99.90;;;;;;4419083;32;20093;-74
2024/02/28 05:54:31;;;;;;;0.75;0.75;;;4.90;99.90;;;;;;4424351;32;20439;-74
2024/02/28 05:56:56;;;;;;;0.50;0.50;;;4.90;99.90;;;;;;4418619;32;20135;-74
2024/02/28 05:59:22;;;;;;;1.75;1.37;;;4.80;99.90;;;;;;4422886;32;20070;-73
2024/02/28 06:01:47;;;;;;;0.40;0.40;;;4.80;99.90;;;;;;4423007;32;20123;-74
2024/02/28 06:04:13;;;;;;;0.80;0.70;;;4.80;99.90;;;;;;4422308;32;20081;-73
2024/02/28 06:06:38;;;;;;;0.40;0.40;;;4.80;99.90;;;;;;4409534;32;20659;-74
2024/02/28 06:09:04;;;;;;;0.75;0.70;;;4.80;99.90;;;;;;4418402;32;20113;-75
2024/02/28 06:11:29;;;;;;;1.75;0.82;;;4.80;99.90;;;;;;4420217;32;20077;-74
2024/02/28 06:13:55;;;;;;;0.75;0.75;;;4.70;99.90;;;;;;4406602;32;20081;-74
2024/02/28 06:16:20;;;;;;;0.57;0.57;;;4.80;99.90;;;;;;4417835;32;20078;-73
2024/02/28 06:18:46;;;;;;;0.30;0.30;;;4.70;99.90;;;;;;4418371;32;20095;-73
2024/02/28 06:21:14;;;;;;;0.30;0.30;;;4.60;99.90;;;;;;4410017;32;20135;-74
2024/02/28 06:23:39;;;;;;;0.45;0.45;;;4.60;99.90;;;;;;4414706;32;20084;-75
2024/02/28 06:26:05;;;;;;;0.40;0.40;;;4.70;99.90;;;;;;4406575;32;21262;-75
2024/02/28 06:28:32;;;;;;;14.05;0.62;;;4.70;99.90;;;;;;4401915;32;20541;-73
2024/02/28 06:30:57;;;;;;;0.30;0.30;;;4.70;99.90;;;;;;4413849;32;20989;-74
2024/02/28 06:33:23;;;;;;;0.30;0.30;;;4.70;99.90;;;;;;4412726;32;20117;-74
2024/02/28 06:35:48;;;;;;;0.55;0.55;;;4.70;99.90;;;;;;4416984;32;20066;-73
2024/02/28 06:38:14;;;;;;;0.30;0.30;;;4.70;99.90;;;;;;4411073;32;20093;-74
2024/02/28 06:40:41;;;;;;;0.30;0.30;;;4.70;99.90;;;;;;4410450;32;20061;-74
2024/02/28 06:43:06;;;;;;;0.40;0.40;;;4.60;99.90;;;;;;4411939;32;20501;-76
2024/02/28 06:45:32;;;;;;;2.83;1.12;;;4.60;99.90;;;;;;4412757;32;21450;-75
2024/02/28 06:47:58;;;;;;;0.30;0.30;;;4.70;99.90;;;;;;4403713;32;20375;-76
2024/02/28 06:50:23;;;;;;;0.43;0.35;;;4.70;99.90;;;;;;4411082;32;20389;-76
2024/02/28 06:52:49;;;;;;;0.55;0.55;;;4.80;99.90;;;;;;4411775;32;20094;-74
2024/02/28 06:55:14;;;;;;;0.80;0.75;;;4.80;99.90;;;;;;4408398;32;20101;-77
2024/02/28 06:57:42;;;;;;;0.47;0.47;;;4.90;99.90;;;;;;4404524;32;20110;-77
2024/02/28 07:02:36;;;;;;;0.68;0.60;;;4.90;99.90;;;;;;4389704;32;20565;-77
2024/02/28 07:05:04;;;;;;;0.47;0.47;;;4.90;99.90;;;;;;4404561;32;20190;-78
2024/02/28 07:07:30;;;;;;;0.37;0.37;;;4.90;99.90;;;;;;4407842;32;20205;-77
2024/02/28 07:09:56;;;;;;;0.30;0.30;;;4.80;99.90;;;;;;4404889;32;20517;-76
2024/02/28 07:12:22;;;;;;;0.30;0.30;;;4.70;99.90;;;;;;4406029;32;20089;-77
2024/02/28 07:14:47;;;;;;;4.68;0.75;;;4.60;99.90;;;;;;4407001;32;21076;-77
2024/02/28 07:17:13;;;;;;;0.30;0.30;;;4.70;99.90;;;;;;4401474;32;20171;-77
2024/02/28 07:19:38;;;;;;;2.08;1.15;;;4.70;99.90;;;;;;4399120;32;20204;-77
2024/02/28 07:22:05;;;;;;;0.40;0.40;;;4.70;99.90;;;;;;4399820;32;20771;-76
2024/02/28 07:24:31;;;;;;;0.40;0.40;;;4.80;99.90;;;;;;4399927;32;20467;-76
2024/02/28 07:26:57;;;;;;;0.30;0.30;;;4.80;99.90;;;;;;4399144;32;20082;-76
2024/02/28 07:29:23;;;;;;;3.37;0.70;;;4.80;99.90;;;;;;4404036;32;20073;-77
2024/02/28 07:31:50;;;;;;;0.30;0.30;;;4.80;99.90;;;;;;4403498;32;20089;-76
2024/02/28 07:34:15;;;;;;;0.40;0.40;;;4.80;99.90;;;;;;4400219;32;20094;-76
2024/02/28 07:36:41;;;;;;;0.95;0.75;;;4.80;99.90;;;;;;4396022;32;20077;-75
2024/02/28 07:39:06;;;;;;;4.12;0.70;;;4.80;99.90;;;;;;4400950;32;20131;-76
2024/02/28 07:41:32;;;;;;;0.95;0.95;;;4.70;99.90;;;;;;4399580;32;20937;-75
2024/02/28 07:43:58;;;;;;;0.35;0.35;;;4.70;99.90;;;;;;4399143;32;20148;-77
2024/02/28 07:46:24;;;;;;;0.60;0.60;;;4.60;99.90;;;;;;4385300;32;20324;-75
2024/02/28 07:48:49;;;;;;;0.47;0.47;;;4.60;99.90;;;;;;4395955;32;20416;-76
2024/02/28 07:51:15;;;;;;;0.60;0.60;;;4.60;99.90;;;;;;4390121;32;20588;-76
2024/02/28 07:53:41;;;;;;;0.35;0.35;;;4.60;99.90;;;;;;4393104;32;20494;-76
2024/02/28 07:56:06;;;;;;;0.40;0.40;;;4.70;99.90;;;;;;4393598;32;20100;-76
2024/02/28 07:58:32;;;;;;;1.30;0.80;;;4.60;99.90;;;;;;4396176;32;20105;-75
2024/02/28 08:00:57;;;;;;;0.60;0.60;;;4.70;99.90;;;;;;4386034;32;20117;-76
2024/02/28 08:03:23;;;;;;;0.35;0.35;;;4.70;99.90;;;;;;4387834;32;20766;-76
2024/02/28 08:05:49;;;;;;;0.37;0.37;;;4.70;99.90;;;;;;4396943;32;20110;-75
2024/02/28 08:08:15;;;;;;;1.17;1.08;;;4.60;99.90;;;;;;4388018;32;20741;-75
2024/02/28 08:10:40;;;;;;;0.40;0.40;;;4.60;99.90;;;;;;4386877;32;20620;-75
2024/02/28 08:13:07;;;;;;;0.30;0.30;;;4.60;99.90;;;;;;4394568;32;20073;-75
2024/02/28 08:15:33;;;;;;;0.45;0.45;;;4.50;99.90;;;;;;4395877;32;21550;-74
2024/02/28 08:17:58;;;;;;;0.40;0.40;;;4.60;99.90;;;;;;4398353;32;20145;-74
2024/02/28 08:20:24;;;;;;;0.68;0.68;;;4.60;99.90;;;;;;4399274;32;20256;-77
2024/02/28 08:22:52;;;;;;;0.50;0.50;;;4.60;99.90;;;;;;4397949;32;20098;-75
2024/02/28 08:25:18;;;;;;;0.70;0.70;;;4.60;99.90;;;;;;4393063;32;20144;-74
2024/02/28 08:27:43;;;;;;;0.40;0.40;;;4.50;99.90;;;;;;4390199;32;20159;-75
2024/02/28 08:30:09;;;;;;;0.50;0.50;;;4.40;99.90;;;;;;4367815;32;21107;-75
2024/02/28 08:32:34;;;;;;;0.75;0.75;;;4.40;99.90;;;;;;4364070;32;20090;-75
2024/02/28 08:37:25;;;;;;;2.22;1.15;;;4.40;99.90;;;;;;4360418;32;20195;-75
2024/02/28 08:38:25;;;;;;;5.93;1.05;;;4.50;99.90;;;;;;4363719;32;20105;-75
2024/02/28 08:40:51;;;;;;;1.27;0.93;;;4.50;99.90;;;;;;4398102;32;20837;-74
2024/02/28 08:43:27;;;;;;;0.40;0.40;;;4.50;99.90;;;;;;4403371;32;20336;-75
2024/02/28 08:45:55;;;;;;;0.50;0.50;;;4.30;99.90;;;;;;4409277;32;20085;-75
2024/02/28 08:48:20;;;;;;;0.30;0.30;;;4.30;99.90;;;;;;4394311;32;20081;-75
2024/02/28 08:50:46;;;;;;;0.30;0.30;;;4.30;99.90;;;;;;4395790;32;20155;-75
2024/02/28 08:53:17;;;;;;;3.75;1.15;;;4.40;99.90;;;;;;4378156;32;20110;-75
2024/02/28 08:55:44;;;;;;;0.50;0.50;;;4.40;99.90;;;;;;4387633;32;20109;-76
2024/02/28 08:58:10;;;;;;;0.40;0.40;;;4.30;99.90;;;;;;4390525;32;20104;-76
2024/02/28 09:00:36;;;;;;;0.45;0.45;;;4.40;99.90;;;;;;4389820;32;20448;-78
2024/02/28 09:03:04;;;;;;;0.40;0.40;;;4.30;99.90;;;;;;4401724;32;20134;-77
2024/02/28 09:05:29;;;;;;;0.35;0.35;;;4.30;99.90;;;;;;4402123;32;20093;-78
2024/02/28 09:07:57;;;;;;;0.60;0.60;;;4.30;99.90;;;;;;4388177;32;20693;-78
2024/02/28 09:10:24;;;;;;;0.40;0.40;;;4.30;99.90;;;;;;4401166;32;20325;-76
2024/02/28 09:12:50;;;;;;;0.90;0.65;;;4.40;99.90;;;;;;4395470;32;20696;-78
2024/02/28 09:15:15;;;;;;;0.40;0.40;;;4.40;99.90;;;;;;4399657;32;20381;-78
2024/02/28 09:17:45;;;;;;;0.80;0.80;;;4.30;99.90;;;;;;4397850;32;22095;-78
2024/02/28 09:20:11;;;;;;;0.55;0.55;;;4.30;99.90;;;;;;4400494;32;20077;-78
2024/02/28 09:22:38;;;;;;;0.65;0.65;;;4.30;99.90;;;;;;4387579;32;20450;-78
2024/02/28 09:25:04;;;;;;;0.40;0.40;;;4.40;99.90;;;;;;4398460;32;21668;-78
2024/02/28 09:27:30;;;;;;;0.52;0.52;;;4.40;99.90;;;;;;4394345;32;20209;-76
2024/02/28 09:29:55;;;;;;;0.88;0.82;;;4.50;99.90;;;;;;4391203;32;20114;-77
2024/02/28 09:32:21;;;;;;;0.60;0.60;;;4.60;99.90;;;;;;4384515;32;21525;-75
2024/02/28 09:34:47;;;;;;;0.40;0.40;;;4.60;99.90;;;;;;4375247;32;22433;-75
2024/02/28 09:37:13;;;;;;;0.40;0.40;;;4.60;99.90;;;;;;4383388;32;20255;-75
2024/02/28 09:39:40;;;;;;;0.73;0.65;;;4.60;99.90;;;;;;4380356;32;20174;-74
2024/02/28 09:42:08;;;;;;;0.45;0.45;;;4.70;99.90;;;;;;4369982;32;20715;-75
2024/02/28 09:44:34;;;;;;;0.43;0.43;;;4.70;99.90;;;;;;4383919;32;20101;-75
2024/02/28 09:47:00;;;;;;;0.57;0.57;;;4.70;99.90;;;;;;4377958;32;20486;-76
2024/02/28 09:49:26;;;;;;;0.55;0.55;;;4.70;99.90;;;;;;4381362;32;20163;-75
2024/02/28 09:51:52;;;;;;;0.50;0.50;;;4.70;99.90;;;;;;4391641;32;21103;-75
2024/02/28 09:54:18;;;;;;;0.57;0.57;;;4.80;99.90;;;;;;4392923;32;20253;-75
2024/02/28 09:56:48;;;;;;;1.00;0.73;;;4.80;99.90;;;;;;4385740;32;20144;-78
2024/02/28 09:59:17;;;;;;;1.15;1.05;;;4.80;99.90;;;;;;4397367;32;20769;-81
2024/02/28 10:04:12;;;;;;;0.82;0.82;;;4.60;99.90;;;;;;4394080;32;20096;-78
2024/02/28 10:06:39;;;;;;;0.57;0.45;;;4.60;99.90;;;;;;4382453;32;20207;-80
2024/02/28 10:09:05;;;;;;;0.40;0.40;;;4.60;99.90;;;;;;4369103;32;20513;-78
2024/02/28 10:11:32;;;;;;;1.30;1.25;;;4.60;99.90;;;;;;4392256;32;20596;-78
2024/02/28 10:14:01;;;;;;;1.45;1.02;;;4.60;99.90;;;;;;4379714;32;20509;-78
2024/02/28 10:16:27;;;;;;;0.93;0.93;;;4.60;99.90;;;;;;4380594;32;20114;-79
2024/02/28 10:18:53;;;;;;;0.77;0.77;;;4.70;99.90;;;;;;4391135;32;20089;-77
2024/02/28 10:21:19;;;;;;;0.55;0.55;;;4.70;99.90;;;;;;4391752;32;20378;-80
2024/02/28 10:23:45;;;;;;;0.70;0.70;;;4.80;99.90;;;;;;4374818;32;20072;-80
2024/02/28 10:26:12;;;;;;;1.00;0.68;;;4.80;99.90;;;;;;4391409;32;21459;-77
2024/02/28 10:28:40;;;;;;;0.75;0.75;;;4.70;99.90;;;;;;4385504;32;20114;-78
2024/02/28 10:31:07;;;;;;;0.57;0.57;;;4.70;99.90;;;;;;4396796;32;20664;-78
2024/02/28 10:33:33;;;;;;;0.62;0.62;;;4.80;99.90;;;;;;4388547;32;20100;-77
2024/02/28 10:36:00;;;;;;;0.52;0.52;;;4.90;99.90;;;;;;4383557;32;20102;-77
2024/02/28 10:38:27;;;;;;;0.80;0.70;;;4.90;99.90;;;;;;4390510;32;20082;-76
2024/02/28 10:40:55;;;;;;;0.50;0.50;;;4.90;99.90;;;;;;4396374;32;20396;-78
2024/02/28 10:43:21;;;;;;;0.50;0.50;;;5.00;99.90;;;;;;4400177;32;20077;-78
2024/02/28 10:45:46;;;;;;;0.40;0.40;;;4.90;99.90;;;;;;4398523;32;20113;-77
2024/02/28 10:48:16;;;;;;;0.75;0.75;;;4.90;99.90;;;;;;4393850;32;20100;-77
2024/02/28 10:50:46;;;;;;;0.80;0.80;;;5.00;99.90;;;;;;4391950;32;20088;-77
2024/02/28 10:53:15;;;;;;;3.83;1.37;;;5.00;99.90;;;;;;4385291;32;21166;-76
2024/02/28 10:55:43;;;;;;;1.25;1.10;;;5.00;99.90;;;;;;4390559;32;21298;-77
2024/02/28 10:58:10;;;;;;;1.37;1.08;;;4.90;99.90;;;;;;4390945;32;20140;-77
2024/02/28 11:00:38;;;;;;;1.52;1.25;;;4.80;99.90;;;;;;4387929;32;20089;-76
2024/02/28 11:03:06;;;;;;;2.05;1.17;;;4.80;99.90;;;;;;4387922;32;20225;-76
2024/02/28 11:05:38;;;;;;;0.40;0.40;;;4.80;99.90;;;;;;4391221;32;20647;-79
2024/02/28 11:08:08;;;;;;;0.60;0.60;;;4.80;99.90;;;;;;4393005;32;20101;-78
2024/02/28 11:10:34;;;;;;;0.40;0.40;;;4.80;99.90;;;;;;4393321;32;20606;-78
2024/02/28 11:12:59;;;;;;;0.98;0.80;;;4.80;99.90;;;;;;4389167;32;20102;-78
2024/02/28 11:15:30;;;;;;;0.50;0.50;;;4.90;99.90;;;;;;4377850;32;20611;-77
2024/02/28 11:18:08;;;;;;;1.77;0.60;;;4.90;99.90;;;;;;4386205;32;20101;-78
2024/02/28 11:20:34;;;;;;;2.70;0.90;;;5.00;99.90;;;;;;4382805;32;20425;-78
2024/02/28 11:23:00;;;;;;;1.08;1.00;;;4.80;99.90;;;;;;4381239;32;20746;-77
2024/02/28 11:25:25;;;;;;;1.27;0.77;;;4.70;99.90;;;;;;4382823;32;20674;-78
2024/02/28 11:27:51;;;;;;;0.40;0.40;;;4.90;99.90;;;;;;4395707;32;20092;-77
2024/02/28 11:30:17;;;;;;;0.50;0.50;;;4.90;99.90;;;;;;4399991;32;20080;-78
2024/02/28 11:32:43;;;;;;;0.70;0.70;;;5.10;99.90;;;;;;4404936;32;20235;-76
2024/02/28 11:35:11;;;;;;;0.40;0.40;;;5.10;99.90;;;;;;4397632;32;20717;-76
2024/02/28 11:37:39;;;;;;;0.55;0.55;;;5.00;99.90;;;;;;4409872;32;20097;-77
2024/02/28 11:40:09;;;;;;;1.65;0.80;;;5.00;99.90;;;;;;4408500;32;20077;-76
2024/02/28 11:42:35;;;;;;;0.73;0.70;;;4.90;99.90;;;;;;4404094;32;20495;-77
2024/02/28 11:45:05;;;;;;;0.82;0.82;;;4.80;99.90;;;;;;4409337;32;20073;-77
2024/02/28 11:47:32;;;;;;;0.40;0.40;;;4.90;99.90;;;;;;4410350;32;20077;-77
2024/02/28 11:50:02;;;;;;;1.85;0.70;;;4.90;99.90;;;;;;4410755;32;20536;-77
2024/02/28 11:52:32;;;;;;;0.40;0.40;;;4.90;99.90;;;;;;4393796;32;236968;-77
2024/02/28 11:54:58;;;;;;;0.40;0.40;;;4.80;99.90;;;;;;4396616;32;21308;-77
2024/02/28 11:57:26;;;;;;;0.73;0.65;;;4.90;99.90;;;;;;4373371;32;20642;-76
2024/02/28 11:59:52;;;;;;;5.15;0.85;;;4.80;99.90;;;;;;4389241;32;20096;-78
2024/02/28 12:02:18;;;;;;;0.30;0.30;;;4.70;99.90;;;;;;4379388;32;21913;-77
2024/02/28 12:04:45;;;;;;;0.85;0.85;;;4.70;99.90;;;;;;4384018;32;20346;-78
2024/02/28 12:07:11;;;;;;;1.00;0.82;;;4.80;99.90;;;;;;4399524;32;20073;-79
2024/02/28 12:09:40;;;;;;;1.48;0.93;;;4.90;99.90;;;;;;4400782;32;20105;-79
2024/02/28 12:12:08;;;;;;;0.37;0.37;;;5.00;99.90;;;;;;4390816;32;20101;-78
2024/02/28 12:14:37;;;;;;;0.55;0.55;;;5.00;99.90;;;;;;4394153;32;20081;-78
2024/02/28 12:17:03;;;;;;;6.53;1.12;;;5.10;99.90;;;;;;4397111;32;20103;-77
2024/02/28 12:19:30;;;;;;;0.55;0.55;;;5.10;99.90;;;;;;4400300;32;20130;-77
2024/02/28 12:21:57;;;;;;;0.68;0.68;;;5.00;99.90;;;;;;4395826;32;20131;-78
2024/02/28 12:24:23;;;;;;;0.62;0.62;;;4.80;99.90;;;;;;4402479;32;20512;-78
2024/02/28 12:26:50;;;;;;;0.65;0.65;;;4.80;99.90;;;;;;4399332;32;20069;-78
2024/02/28 12:29:16;;;;;;;0.60;0.60;;;4.90;99.90;;;;;;4402693;32;20625;-79
2024/02/28 12:31:41;;;;;;;6.97;1.58;;;5.00;99.90;;;;;;4406283;32;20148;-79
2024/02/28 12:34:08;;;;;;;0.98;0.75;;;5.10;99.90;;;;;;4402569;32;27250;-78
2024/02/28 12:36:34;;;;;;;1.55;0.98;;;5.20;99.90;;;;;;4401668;32;20077;-78
2024/02/28 12:39:05;;;;;;;0.82;0.73;;;5.20;99.90;;;;;;4397614;32;20102;-78
2024/02/28 12:41:31;;;;;;;0.73;0.73;;;5.20;99.90;;;;;;4397606;32;20735;-80
2024/02/28 12:43:57;;;;;;;0.40;0.40;;;5.20;99.90;;;;;;4390636;32;20290;-78
2024/02/28 12:46:24;;;;;;;6.37;1.08;;;5.10;99.90;;;;;;4389531;32;20098;-77
2024/02/28 12:48:50;;;;;;;1.08;0.75;;;5.10;99.90;;;;;;4397303;32;20097;-77
2024/02/28 12:51:37;;;;;;;1.50;0.80;;;5.20;99.90;;;;;;4399542;32;20101;-76
2024/02/28 12:54:03;;;;;;;0.62;0.62;;;5.00;99.90;;;;;;4386563;32;20084;-77
2024/02/28 12:56:28;;;;;;;0.52;0.52;;;5.00;99.90;;;;;;4394906;32;20145;-77
2024/02/28 12:58:54;;;;;;;1.98;0.95;;;5.10;99.90;;;;;;4389316;32;20101;-77
2024/02/28 13:01:20;;;;;;;0.60;0.60;;;5.30;99.90;;;;;;4394684;32;20065;-77